Othello — LXOD — position and weather

sailwx.info

Track history (hours):
 
Tides and Currents Weather Stations Pressure Air Temp Water Temp Dewpoint Dewpoint Depression Visibility Wind Speed Wind Dir Waves Ship Positions

Othello

Last reported at 2014-Sep-21 01:07 UTC. Time now 2014-Sep-23 00:20 UTC.
Position N 47°03' W 002°31'.

Length 104 m; draft 7 m.

Type: Ship. MMSI: 253279000.

Date/timePositionNaut miles runAvg speedWind from/ knotsBaromVisibWave heightAir tempDewpointWater temp
2014-Sep-21 01:07N 47°03' W 002°31'811.7
2014-Sep-21 00:27N 46°59' W 002°41'1411.4
2014-Sep-20 23:15N 46°51' W 002°57'5611.9
2014-Sep-20 18:31N 46°19' W 004°04'1211.7
2014-Sep-20 17:30N 46°12' W 004°18'3612.0
2014-Sep-20 14:29N 45°51' W 005°00'1112.0
2014-Sep-20 13:33N 45°44' W 005°14'1211.9
2014-Sep-20 12:32N 45°38' W 005°28'1211.9
2014-Sep-20 11:31N 45°30' W 005°41'47711.0
2014-Sep-18 16:19N 38°09' W 009°46'1011.8
2014-Sep-18 15:30N 37°60' W 009°44'1112.0
2014-Sep-18 14:33N 37°49' W 009°41'1211.8
2014-Sep-18 13:32N 37°37' W 009°37'7710.9
2014-Sep-18 06:29N 36°35' W 008°41'16411.8
2014-Sep-17 16:33N 36°00' W 005°22'6 6.1
2014-Sep-17 15:32N 35°55' W 005°20'0 0.0
2014-Sep-17 14:32N 35°54' W 005°20'0 0.0
2014-Sep-17 13:32N 35°55' W 005°20'0 0.0
2014-Sep-17 12:32N 35°55' W 005°20'0 0.0
2014-Sep-17 11:32N 35°55' W 005°20'0 0.2
2014-Sep-17 10:32N 35°55' W 005°20'0 0.0
2014-Sep-17 09:32N 35°55' W 005°20'6 6.2
2014-Sep-17 08:33N 36°01' W 005°20'20812.1
2014-Sep-16 15:20N 37°05' W 001°14'1012.8
2014-Sep-16 14:33N 37°12' W 001°05'1312.7
2014-Sep-16 13:32N 37°21' W 000°53'1713.0
2014-Sep-16 12:14N 37°32' W 000°37'812.4
2014-Sep-16 11:33N 37°39' W 000°31'1212.4
2014-Sep-16 10:33N 37°49' W 000°22'1212.5
2014-Sep-16 09:33N 37°59' W 000°12'1313.0
2014-Sep-16 08:33N 38°10' W 000°03'1311.9
2014-Sep-16 07:26N 38°22' E 000°03'4112.8
2014-Sep-16 04:15N 38°54' E 000°36'913.0
2014-Sep-16 03:32N 39°02' E 000°42'5712.8
2014-Sep-15 23:06N 39°47' E 001°26'2113.0
2014-Sep-15 21:30N 40°04' E 001°42'1412.7
2014-Sep-15 20:23N 40°15' E 001°54'1112.4
2014-Sep-15 19:28N 40°24' E 002°03'2512.5
2014-Sep-15 17:28N 40°44' E 002°23'1212.5
2014-Sep-15 16:29N 40°54' E 002°33'3012.7
2014-Sep-15 14:05N 41°19' E 002°57'1012.7
2014-Sep-15 13:17N 41°27' E 003°05'2112.0
2014-Sep-15 11:32N 41°43' E 003°22'3812.5
2014-Sep-15 08:32N 42°13' E 003°53'1413.5
2014-Sep-15 07:27N 42°25' E 004°05'2713.2
2014-Sep-15 05:23N 42°47' E 004°27'2513.0
2014-Sep-15 03:28N 43°06' E 004°47'1212.8
2014-Sep-15 02:33N 43°16' E 004°57'9 9.2
2014-Sep-15 01:33N 43°24' E 004°53'1 0.8
2014-Sep-15 00:33N 43°25' E 004°53'0 0.0
2014-Sep-14 23:33N 43°25' E 004°53'0 0.0
2014-Sep-14 22:30N 43°25' E 004°53'0 0.0
2014-Sep-14 21:33N 43°25' E 004°53'0 0.0
2014-Sep-14 20:33N 43°25' E 004°53'0 0.0
2014-Sep-14 19:33N 43°25' E 004°53'0 0.0
2014-Sep-14 18:33N 43°25' E 004°53'0 0.0
2014-Sep-14 17:33N 43°25' E 004°53'0 0.0
2014-Sep-14 16:33N 43°25' E 004°53'0 0.0
2014-Sep-14 15:30N 43°25' E 004°53'0 0.0
2014-Sep-14 14:33N 43°25' E 004°53'0 0.0
2014-Sep-14 13:33N 43°25' E 004°53'0 0.0
2014-Sep-14 12:33N 43°25' E 004°53'0 0.0
2014-Sep-14 11:30N 43°25' E 004°53'0 0.0
2014-Sep-14 10:33N 43°25' E 004°53'0 0.0
2014-Sep-14 09:30N 43°25' E 004°53'0 0.0
2014-Sep-14 08:27N 43°25' E 004°53'0 0.0
2014-Sep-14 07:33N 43°25' E 004°53'0 0.0
2014-Sep-14 06:33N 43°25' E 004°53'0 0.0
2014-Sep-14 05:33N 43°25' E 004°53'0 0.0
2014-Sep-14 04:33N 43°25' E 004°53'0 0.0
2014-Sep-14 03:33N 43°25' E 004°53'0 0.0
2014-Sep-14 02:33N 43°25' E 004°53'0 0.0
2014-Sep-14 01:33N 43°25' E 004°53'2 0.6
2014-Sep-13 21:31N 43°24' E 004°56'0 0.0
2014-Sep-13 20:31N 43°24' E 004°56'0 0.0
2014-Sep-13 19:31N 43°24' E 004°56'0 0.0
2014-Sep-13 18:31N 43°24' E 004°56'0 0.0
2014-Sep-13 17:31N 43°24' E 004°56'0 0.0
2014-Sep-13 16:28N 43°24' E 004°56'0 0.0
2014-Sep-13 15:28N 43°24' E 004°56'0 0.0
2014-Sep-13 14:25N 43°24' E 004°56'0 0.0
2014-Sep-13 13:31N 43°24' E 004°56'0 0.0
2014-Sep-13 12:31N 43°24' E 004°56'0 0.0
2014-Sep-13 11:31N 43°24' E 004°56'0 0.0
2014-Sep-13 10:31N 43°24' E 004°56'0 0.0
2014-Sep-13 09:31N 43°24' E 004°56'0 0.0
2014-Sep-13 08:31N 43°24' E 004°56'0 0.0
2014-Sep-13 07:25N 43°24' E 004°56'0 0.0
2014-Sep-13 06:31N 43°24' E 004°56'0 0.0
2014-Sep-13 05:31N 43°24' E 004°56'0 0.0
2014-Sep-13 04:31N 43°24' E 004°56'0 0.0
2014-Sep-13 03:28N 43°24' E 004°56'0 0.0
2014-Sep-13 02:31N 43°24' E 004°56'0 0.0
2014-Sep-13 01:31N 43°24' E 004°56'0 0.0
2014-Sep-13 00:31N 43°24' E 004°56'0 0.0
2014-Sep-12 23:31N 43°24' E 004°56'0 0.0
2014-Sep-12 22:31N 43°24' E 004°56'0 0.0
2014-Sep-12 21:31N 43°24' E 004°56'0 0.0
2014-Sep-12 20:31N 43°24' E 004°56'0 0.0
2014-Sep-12 19:31N 43°24' E 004°56'0 0.0
2014-Sep-12 18:31N 43°24' E 004°56'0 0.0
2014-Sep-12 17:31N 43°24' E 004°56'0 0.0
2014-Sep-12 16:31N 43°24' E 004°56'0 0.0
2014-Sep-12 15:31N 43°24' E 004°56'0 0.0
2014-Sep-12 14:31N 43°24' E 004°56'0 0.0
2014-Sep-12 13:31N 43°24' E 004°56'0 0.0
2014-Sep-12 12:31N 43°24' E 004°56'0 0.0
2014-Sep-12 11:31N 43°24' E 004°56'0 0.0
2014-Sep-12 10:31N 43°24' E 004°56'0 0.0
2014-Sep-12 09:31N 43°24' E 004°56'0 0.0
2014-Sep-12 08:31N 43°24' E 004°56'0 0.0
2014-Sep-12 07:31N 43°24' E 004°56'2 2.0
2014-Sep-12 06:33N 43°22' E 004°58'8 8.1
2014-Sep-12 05:33N 43°15' E 005°01'8 8.1
2014-Sep-12 04:33N 43°07' E 005°05'7 7.1
2014-Sep-12 03:33N 43°01' E 004°59'26 6.4
2014-Sep-11 23:33N 42°41' E 004°37'7 5.9
2014-Sep-11 22:20N 42°36' E 004°31'6 6.2
2014-Sep-11 21:25N 42°31' E 004°26'5 6.2
2014-Sep-11 20:32N 42°27' E 004°22'6 6.2
2014-Sep-11 19:32N 42°22' E 004°16'6 6.5
2014-Sep-11 18:33N 42°17' E 004°11'8 8.0
2014-Sep-11 17:31N 42°11' E 004°03'8 8.5
2014-Sep-11 16:33N 42°05' E 003°56'9 8.2
2014-Sep-11 15:27N 41°58' E 003°49'7 7.8
2014-Sep-11 14:33N 41°52' E 003°43'8 7.7
2014-Sep-11 13:33N 41°46' E 003°37'8 7.6
2014-Sep-11 12:33N 41°41' E 003°29'8 7.4
2014-Sep-11 11:27N 41°37' E 003°20'6 7.0
2014-Sep-11 10:33N 41°33' E 003°13'7 7.1
2014-Sep-11 09:31N 41°29' E 003°05'7 6.9
2014-Sep-11 08:33N 41°25' E 002°58'11 7.7
2014-Sep-11 07:09N 41°19' E 002°46'3 5.7
2014-Sep-11 06:32N 41°17' E 002°42'7 7.1
2014-Sep-11 05:33N 41°13' E 002°34'8 7.7
2014-Sep-11 04:33N 41°09' E 002°26'7 7.2
2014-Sep-11 03:33N 41°05' E 002°18'8 7.6
2014-Sep-11 02:33N 41°03' E 002°08'8 7.8
2014-Sep-11 01:33N 41°01' E 001°58'  
Track history (hours):
 
Tides and Currents Weather Stations Pressure Air Temp Water Temp Dewpoint Dewpoint Depression Visibility Wind Speed Wind Dir Waves Ship Positions

Othello

Last reported at 2014-Sep-21 01:07 UTC. Time now 2014-Sep-23 00:20 UTC.
Position N 47°03' W 002°31'.

Length 104 m; draft 7 m.

Type: Ship. MMSI: 253279000.

Date/timePositionNaut miles runAvg speedWind from/ knotsBaromVisibWave heightAir tempDewpointWater temp
2014-Sep-21 01:07N 47°03' W 002°31'811.7
2014-Sep-21 00:27N 46°59' W 002°41'1411.4
2014-Sep-20 23:15N 46°51' W 002°57'5611.9
2014-Sep-20 18:31N 46°19' W 004°04'1211.7
2014-Sep-20 17:30N 46°12' W 004°18'3612.0
2014-Sep-20 14:29N 45°51' W 005°00'1112.0
2014-Sep-20 13:33N 45°44' W 005°14'1211.9
2014-Sep-20 12:32N 45°38' W 005°28'1211.9
2014-Sep-20 11:31N 45°30' W 005°41'47711.0
2014-Sep-18 16:19N 38°09' W 009°46'1011.8
2014-Sep-18 15:30N 37°60' W 009°44'1112.0
2014-Sep-18 14:33N 37°49' W 009°41'1211.8
2014-Sep-18 13:32N 37°37' W 009°37'7710.9
2014-Sep-18 06:29N 36°35' W 008°41'16411.8
2014-Sep-17 16:33N 36°00' W 005°22'6 6.1
2014-Sep-17 15:32N 35°55' W 005°20'0 0.0
2014-Sep-17 14:32N 35°54' W 005°20'0 0.0
2014-Sep-17 13:32N 35°55' W 005°20'0 0.0
2014-Sep-17 12:32N 35°55' W 005°20'0 0.0
2014-Sep-17 11:32N 35°55' W 005°20'0 0.2
2014-Sep-17 10:32N 35°55' W 005°20'0 0.0
2014-Sep-17 09:32N 35°55' W 005°20'6 6.2
2014-Sep-17 08:33N 36°01' W 005°20'20812.1
2014-Sep-16 15:20N 37°05' W 001°14'1012.8
2014-Sep-16 14:33N 37°12' W 001°05'1312.7
2014-Sep-16 13:32N 37°21' W 000°53'1713.0
2014-Sep-16 12:14N 37°32' W 000°37'812.4
2014-Sep-16 11:33N 37°39' W 000°31'1212.4
2014-Sep-16 10:33N 37°49' W 000°22'1212.5
2014-Sep-16 09:33N 37°59' W 000°12'1313.0
2014-Sep-16 08:33N 38°10' W 000°03'1311.9
2014-Sep-16 07:26N 38°22' E 000°03'4112.8
2014-Sep-16 04:15N 38°54' E 000°36'913.0
2014-Sep-16 03:32N 39°02' E 000°42'5712.8
2014-Sep-15 23:06N 39°47' E 001°26'2113.0
2014-Sep-15 21:30N 40°04' E 001°42'1412.7
2014-Sep-15 20:23N 40°15' E 001°54'1112.4
2014-Sep-15 19:28N 40°24' E 002°03'2512.5
2014-Sep-15 17:28N 40°44' E 002°23'1212.5
2014-Sep-15 16:29N 40°54' E 002°33'3012.7
2014-Sep-15 14:05N 41°19' E 002°57'1012.7
2014-Sep-15 13:17N 41°27' E 003°05'2112.0
2014-Sep-15 11:32N 41°43' E 003°22'3812.5
2014-Sep-15 08:32N 42°13' E 003°53'1413.5
2014-Sep-15 07:27N 42°25' E 004°05'2713.2
2014-Sep-15 05:23N 42°47' E 004°27'2513.0
2014-Sep-15 03:28N 43°06' E 004°47'1212.8
2014-Sep-15 02:33N 43°16' E 004°57'9 9.2
2014-Sep-15 01:33N 43°24' E 004°53'1 0.8
2014-Sep-15 00:33N 43°25' E 004°53'0 0.0
2014-Sep-14 23:33N 43°25' E 004°53'0 0.0
2014-Sep-14 22:30N 43°25' E 004°53'0 0.0
2014-Sep-14 21:33N 43°25' E 004°53'0 0.0
2014-Sep-14 20:33N 43°25' E 004°53'0 0.0
2014-Sep-14 19:33N 43°25' E 004°53'0 0.0
2014-Sep-14 18:33N 43°25' E 004°53'0 0.0
2014-Sep-14 17:33N 43°25' E 004°53'0 0.0
2014-Sep-14 16:33N 43°25' E 004°53'0 0.0
2014-Sep-14 15:30N 43°25' E 004°53'0 0.0
2014-Sep-14 14:33N 43°25' E 004°53'0 0.0
2014-Sep-14 13:33N 43°25' E 004°53'0 0.0
2014-Sep-14 12:33N 43°25' E 004°53'0 0.0
2014-Sep-14 11:30N 43°25' E 004°53'0 0.0
2014-Sep-14 10:33N 43°25' E 004°53'0 0.0
2014-Sep-14 09:30N 43°25' E 004°53'0 0.0
2014-Sep-14 08:27N 43°25' E 004°53'0 0.0
2014-Sep-14 07:33N 43°25' E 004°53'0 0.0
2014-Sep-14 06:33N 43°25' E 004°53'0 0.0
2014-Sep-14 05:33N 43°25' E 004°53'0 0.0
2014-Sep-14 04:33N 43°25' E 004°53'0 0.0
2014-Sep-14 03:33N 43°25' E 004°53'0 0.0
2014-Sep-14 02:33N 43°25' E 004°53'0 0.0
2014-Sep-14 01:33N 43°25' E 004°53'2 0.6
2014-Sep-13 21:31N 43°24' E 004°56'0 0.0
2014-Sep-13 20:31N 43°24' E 004°56'0 0.0
2014-Sep-13 19:31N 43°24' E 004°56'0 0.0
2014-Sep-13 18:31N 43°24' E 004°56'0 0.0
2014-Sep-13 17:31N 43°24' E 004°56'0 0.0
2014-Sep-13 16:28N 43°24' E 004°56'0 0.0
2014-Sep-13 15:28N 43°24' E 004°56'0 0.0
2014-Sep-13 14:25N 43°24' E 004°56'0 0.0
2014-Sep-13 13:31N 43°24' E 004°56'0 0.0
2014-Sep-13 12:31N 43°24' E 004°56'0 0.0
2014-Sep-13 11:31N 43°24' E 004°56'0 0.0
2014-Sep-13 10:31N 43°24' E 004°56'0 0.0
2014-Sep-13 09:31N 43°24' E 004°56'0 0.0
2014-Sep-13 08:31N 43°24' E 004°56'0 0.0
2014-Sep-13 07:25N 43°24' E 004°56'0 0.0
2014-Sep-13 06:31N 43°24' E 004°56'0 0.0
2014-Sep-13 05:31N 43°24' E 004°56'0 0.0
2014-Sep-13 04:31N 43°24' E 004°56'0 0.0
2014-Sep-13 03:28N 43°24' E 004°56'0 0.0
2014-Sep-13 02:31N 43°24' E 004°56'0 0.0
2014-Sep-13 01:31N 43°24' E 004°56'0 0.0
2014-Sep-13 00:31N 43°24' E 004°56'0 0.0
2014-Sep-12 23:31N 43°24' E 004°56'0 0.0
2014-Sep-12 22:31N 43°24' E 004°56'0 0.0
2014-Sep-12 21:31N 43°24' E 004°56'0 0.0
2014-Sep-12 20:31N 43°24' E 004°56'0 0.0
2014-Sep-12 19:31N 43°24' E 004°56'0 0.0
2014-Sep-12 18:31N 43°24' E 004°56'0 0.0
2014-Sep-12 17:31N 43°24' E 004°56'0 0.0
2014-Sep-12 16:31N 43°24' E 004°56'0 0.0
2014-Sep-12 15:31N 43°24' E 004°56'0 0.0
2014-Sep-12 14:31N 43°24' E 004°56'0 0.0
2014-Sep-12 13:31N 43°24' E 004°56'0 0.0
2014-Sep-12 12:31N 43°24' E 004°56'0 0.0
2014-Sep-12 11:31N 43°24' E 004°56'0 0.0
2014-Sep-12 10:31N 43°24' E 004°56'0 0.0
2014-Sep-12 09:31N 43°24' E 004°56'0 0.0
2014-Sep-12 08:31N 43°24' E 004°56'0 0.0
2014-Sep-12 07:31N 43°24' E 004°56'2 2.0
2014-Sep-12 06:33N 43°22' E 004°58'8 8.1
2014-Sep-12 05:33N 43°15' E 005°01'8 8.1
2014-Sep-12 04:33N 43°07' E 005°05'7 7.1
2014-Sep-12 03:33N 43°01' E 004°59'26 6.4
2014-Sep-11 23:33N 42°41' E 004°37'7 5.9
2014-Sep-11 22:20N 42°36' E 004°31'6 6.2
2014-Sep-11 21:25N 42°31' E 004°26'5 6.2
2014-Sep-11 20:32N 42°27' E 004°22'6 6.2
2014-Sep-11 19:32N 42°22' E 004°16'6 6.5
2014-Sep-11 18:33N 42°17' E 004°11'8 8.0
2014-Sep-11 17:31N 42°11' E 004°03'8 8.5
2014-Sep-11 16:33N 42°05' E 003°56'9 8.2
2014-Sep-11 15:27N 41°58' E 003°49'7 7.8
2014-Sep-11 14:33N 41°52' E 003°43'8 7.7
2014-Sep-11 13:33N 41°46' E 003°37'8 7.6
2014-Sep-11 12:33N 41°41' E 003°29'8 7.4
2014-Sep-11 11:27N 41°37' E 003°20'6 7.0
2014-Sep-11 10:33N 41°33' E 003°13'7 7.1
2014-Sep-11 09:31N 41°29' E 003°05'7 6.9
2014-Sep-11 08:33N 41°25' E 002°58'11 7.7
2014-Sep-11 07:09N 41°19' E 002°46'3 5.7
2014-Sep-11 06:32N 41°17' E 002°42'7 7.1
2014-Sep-11 05:33N 41°13' E 002°34'8 7.7
2014-Sep-11 04:33N 41°09' E 002°26'7 7.2
2014-Sep-11 03:33N 41°05' E 002°18'8 7.6
2014-Sep-11 02:33N 41°03' E 002°08'8 7.8
2014-Sep-11 01:33N 41°01' E 001°58'  

Dump ship's entire track history